Map

Track Data

SID SEASON NUMBER BASIN SUBBASIN NAME ISO_TIME NATURE LAT LON WMO_WIND WMO_PRES WMO_AGENCY TRACK_TYPE DIST2LAND LANDFALL IFLAG USA_AGENCY USA_ATCF_ID USA_LAT USA_LON USA_RECORD USA_STATUS USA_WIND USA_PRES USA_SSHS USA_R34_NE USA_R34_SE USA_R34_SW USA_R34_NW USA_R50_NE USA_R50_SE USA_R50_SW USA_R50_NW USA_R64_NE USA_R64_SE USA_R64_SW USA_R64_NW USA_POCI USA_ROCI USA_RMW USA_EYE TOKYO_LAT TOKYO_LON TOKYO_GRADE TOKYO_WIND TOKYO_PRES TOKYO_R50_DIR TOKYO_R50_LONG TOKYO_R50_SHORT TOKYO_R30_DIR TOKYO_R30_LONG TOKYO_R30_SHORT TOKYO_LAND CMA_LAT CMA_LON CMA_CAT CMA_WIND CMA_PRES HKO_LAT HKO_LON HKO_CAT HKO_WIND HKO_PRES NEWDELHI_LAT NEWDELHI_LON NEWDELHI_GRADE NEWDELHI_WIND NEWDELHI_PRES NEWDELHI_CI NEWDELHI_DP NEWDELHI_POCI REUNION_LAT REUNION_LON REUNION_TYPE REUNION_WIND REUNION_PRES REUNION_TNUM REUNION_CI REUNION_RMW REUNION_R34_NE REUNION_R34_SE REUNION_R34_SW REUNION_R34_NW REUNION_R50_NE REUNION_R50_SE REUNION_R50_SW REUNION_R50_NW REUNION_R64_NE REUNION_R64_SE REUNION_R64_SW REUNION_R64_NW BOM_LAT BOM_LON BOM_TYPE BOM_WIND BOM_PRES BOM_TNUM BOM_CI BOM_RMW BOM_R34_NE BOM_R34_SE BOM_R34_SW BOM_R34_NW BOM_R50_NE BOM_R50_SE BOM_R50_SW BOM_R50_NW BOM_R64_NE BOM_R64_SE BOM_R64_SW BOM_R64_NW BOM_ROCI BOM_POCI BOM_EYE BOM_POS_METHOD BOM_PRES_METHOD NADI_LAT NADI_LON NADI_CAT NADI_WIND NADI_PRES WELLINGTON_LAT WELLINGTON_LON WELLINGTON_WIND WELLINGTON_PRES DS824_LAT DS824_LON DS824_STAGE DS824_WIND DS824_PRES TD9636_LAT TD9636_LON TD9636_STAGE TD9636_WIND TD9636_PRES TD9635_LAT TD9635_LON TD9635_WIND TD9635_PRES TD9635_ROCI NEUMANN_LAT NEUMANN_LON NEUMANN_CLASS NEUMANN_WIND NEUMANN_PRES MLC_LAT MLC_LON MLC_CLASS MLC_WIND MLC_PRES USA_GUST BOM_GUST BOM_GUST_PER REUNION_GUST REUNION_GUST_PER USA_SEAHGT USA_SEARAD_NE USA_SEARAD_SE USA_SEARAD_SW USA_SEARAD_NW STORM_SPEED STORM_DIR
2021222N12339 2021 53 NA NA GRACE 2021-08-09 18:00:00 NR 11.5000 -20.6000 PROVISIONAL 425 425 O_____________ nhc_working_bt AL072021 11.5000 -20.6000 DB 25 1012 -3 1014 180 50 18 270
2021222N12339 2021 53 NA NA GRACE 2021-08-09 21:00:00 NR 11.5006 -21.5025 PROVISIONAL 521 521 P_____________ AL072021 11.5006 -21.5025 DB 25 1012 -3 1014 180 50 18 270
2021222N12339 2021 53 NA NA GRACE 2021-08-10 00:00:00 NR 11.5000 -22.4000 PROVISIONAL 617 617 O_____________ nhc_working_bt AL072021 11.5000 -22.4000 DB 25 1012 -3 1014 180 50 18 270
2021222N12339 2021 53 NA NA GRACE 2021-08-10 03:00:00 NR 11.4997 -23.2925 PROVISIONAL 714 714 P_____________ AL072021 11.4997 -23.2925 DB 25 1012 -3 1014 180 50 18 270
2021222N12339 2021 53 NA NA GRACE 2021-08-10 06:00:00 NR 11.5000 -24.2000 PROVISIONAL 809 809 O_____________ nhc_working_bt AL072021 11.5000 -24.2000 DB 25 1012 -3 1014 180 50 18 270
2021222N12339 2021 53 NA NA GRACE 2021-08-10 09:00:00 NR 11.4849 -25.1576 PROVISIONAL 907 907 P_____________ AL072021 11.4849 -25.1576 DB 25 1012 -3 1014 180 50 19 270
2021222N12339 2021 53 NA NA GRACE 2021-08-10 12:00:00 NR 11.5000 -26.1000 PROVISIONAL 998 998 O_____________ nhc_working_bt AL072021 11.5000 -26.1000 DB 25 1012 -3 1014 180 50 18 273
2021222N12339 2021 53 NA NA GRACE 2021-08-10 15:00:00 NR 11.5924 -26.9948 PROVISIONAL 1086 1086 P_____________ AL072021 11.5924 -26.9948 DB 25 1010 -3 1012 165 17 277
2021222N12339 2021 53 NA NA GRACE 2021-08-10 18:00:00 NR 11.7000 -27.8000 PROVISIONAL 1164 1164 O_____________ nhc_working_bt AL072021 11.7000 -27.8000 DB 25 1009 -3 1010 150 14 276
2021222N12339 2021 53 NA NA GRACE 2021-08-10 21:00:00 NR 11.7493 -28.4352 PROVISIONAL 1227 1227 P_____________ AL072021 11.7493 -28.4352 DB 25 1009 -3 1010 150 13 274
2021222N12339 2021 53 NA NA GRACE 2021-08-11 00:00:00 NR 11.8000 -29.1000 PROVISIONAL 1297 1297 O_____________ nhc_working_bt AL072021 11.8000 -29.1000 DB 25 1009 -3 1010 150 15 275
2021222N12339 2021 53 NA NA GRACE 2021-08-11 03:00:00 NR 11.8848 -29.9827 PROVISIONAL 1388 1388 P_____________ AL072021 11.8848 -29.9827 DB 25 1009 -3 1011 125 19 276
2021222N12339 2021 53 NA NA GRACE 2021-08-11 06:00:00 NR 12.0000 -31.0000 PROVISIONAL 1492 1492 O_____________ nhc_working_bt AL072021 12.0000 -31.0000 DB 25 1010 -3 1012 100 50 21 277
2021222N12339 2021 53 NA NA GRACE 2021-08-11 09:00:00 NR 12.1349 -32.0851 PROVISIONAL 1606 1606 P_____________ AL072021 12.1349 -32.0851 DB 25 1010 -3 1012 110 50 22 278
2021222N12339 2021 53 NA NA GRACE 2021-08-11 12:00:00 NR 12.3000 -33.2000 PROVISIONAL 1719 1719 O_____________ nhc_working_bt AL072021 12.3000 -33.2000 DB 25 1010 -3 1013 120 50 22 279
2021222N12339 2021 53 NA NA GRACE 2021-08-11 15:00:00 NR 12.4770 -34.2578 PROVISIONAL 1829 1812 P_____________ AL072021 12.4770 -34.2578 DB 25 1010 -3 1013 120 50 21 281
2021222N12339 2021 53 NA NA GRACE 2021-08-11 18:00:00 NR 12.7000 -35.3000 PROVISIONAL 1817 1811 O_____________ nhc_working_bt AL072021 12.7000 -35.3000 DB 25 1010 -3 1013 120 50 21 284
2021222N12339 2021 53 NA NA GRACE 2021-08-11 21:00:00 NR 12.9923 -36.3649 PROVISIONAL 1820 1818 P_____________ AL072021 12.9923 -36.3649 DB 25 1010 -3 1013 120 50 21 286
2021222N12339 2021 53 NA NA GRACE 2021-08-12 00:00:00 NR 13.3000 -37.4000 PROVISIONAL 1829 1760 O_____________ nhc_working_bt AL072021 13.3000 -37.4000 DB 25 1010 -3 1013 120 50 20 286
2021222N12339 2021 53 NA NA GRACE 2021-08-12 03:00:00 NR 13.5645 -38.3652 PROVISIONAL 1758 1701 P_____________ AL072021 13.5645 -38.3652 DB 25 1010 -3 1013 120 50 19 285
2021222N12339 2021 53 NA NA GRACE 2021-08-12 06:00:00 NR 13.8000 -39.3000 PROVISIONAL 1693 1632 O_____________ nhc_working_bt AL072021 13.8000 -39.3000 DB 25 1010 -3 1013 120 50 19 284
2021222N12339 2021 53 NA NA GRACE 2021-08-12 09:00:00 NR 14.0222 -40.2575 PROVISIONAL 1624 1575 P_____________ AL072021 14.0222 -40.2575 DB 27 1010 -3 1013 120 32 19 282
2021222N12339 2021 53 NA NA GRACE 2021-08-12 12:00:00 NR 14.2000 -41.2000 PROVISIONAL 1567 1507 O_____________ nhc_working_bt AL072021 14.2000 -41.2000 DB 30 1010 -3 1013 120 15 18 279
2021222N12339 2021 53 NA NA GRACE 2021-08-12 15:00:00 NR 14.3221 -42.1077 PROVISIONAL 1507 1451 P_____________ AL072021 14.3221 -42.1077 DB 30 1010 -3 1013 120 17 18 277
2021222N12339 2021 53 NA NA GRACE 2021-08-12 18:00:00 NR 14.4000 -43.0000 PROVISIONAL 1451 1398 O_____________ nhc_working_bt AL072021 14.4000 -43.0000 DB 30 1010 -3 1014 120 20 40 17 274
2021222N12339 2021 53 NA NA GRACE 2021-08-12 21:00:00 NR 14.4346 -43.8929 PROVISIONAL 1392 1352 P_____________ AL072021 14.4346 -43.8929 DB 30 1010 -3 1014 120 20 17 273
2021222N12339 2021 53 NA NA GRACE 2021-08-13 00:00:00 NR 14.5000 -44.8000 PROVISIONAL 1346 1302 O_____________ nhc_working_bt AL072021 14.5000 -44.8000 DB 30 1010 -3 1014 120 20 40 18 278
2021222N12339 2021 53 NA NA GRACE 2021-08-13 03:00:00 NR 14.6846 -45.7348 PROVISIONAL 1304 1269 P_____________ AL072021 14.6846 -45.7348 DB 30 1010 -3 1014 120 20 19 282
2021222N12339 2021 53 NA NA GRACE 2021-08-13 06:00:00 NR 14.9000 -46.7000 PROVISIONAL 1263 1231 O_____________ nhc_working_bt AL072021 14.9000 -46.7000 DB 30 1010 -3 1014 120 20 40 19 282
2021222N12339 2021 53 NA NA GRACE 2021-08-13 09:00:00 NR 15.0721 -47.6850 PROVISIONAL 1231 1200 P_____________ AL072021 15.0721 -47.6850 DB 30 1010 -3 1014 120 20 19 279
2021222N12339 2021 53 NA NA GRACE 2021-08-13 12:00:00 NR 15.2000 -48.6400 PROVISIONAL 1200 1161 O_____________ nhc_working_bt AL072021 15.2000 -48.7000 DB 30 1010 -3 1014 120 20 40 20 275
2021222N12339 2021 53 NA NA GRACE 2021-08-13 15:00:00 NR 15.2613 -49.7226 PROVISIONAL 1161 1120 P_____________ AL072021 15.2648 -49.7577 DB 30 1010 -3 1014 120 20 21 273
2021222N12339 2021 53 NA NA GRACE 2021-08-13 18:00:00 TS 15.3000 -50.8000 PROVISIONAL 1116 1087 O_____________ nhc_working_bt AL072021 15.3000 -50.8000 TD 30 1010 -1 1014 120 20 40 20 272
2021222N12339 2021 53 NA NA GRACE 2021-08-13 21:00:00 TS 15.3416 -51.7689 PROVISIONAL 1084 1051 P_____________ AL072021 15.3418 -51.7577 TD 30 1010 -1 1014 120 20 18 273
2021222N12339 2021 53 NA NA GRACE 2021-08-14 00:00:00 TS 15.4000 -52.7000 PROVISIONAL 1041 965 O_____________ nhc_working_bt AL072021 15.4000 -52.7000 TD 30 1010 -1 1014 120 20 40 19 275
2021222N12339 2021 53 NA NA GRACE 2021-08-14 03:00:00 TS 15.5052 -53.6978 PROVISIONAL 956 875 P_____________ AL072021 15.4915 -53.6476 TD 32 1010 -1 1014 120 20 20 277
2021222N12339 2021 53 NA NA GRACE 2021-08-14 06:00:00 TS 15.6466 -54.7828 PROVISIONAL 867 794 O_____________ nhc_working_bt AL072021 15.6000 -54.7000 TS 35 1010 0 20 20 1014 120 20 45 22 278
2021222N12339 2021 53 NA NA GRACE 2021-08-14 09:00:00 TS 15.8190 -55.9659 PROVISIONAL 786 725 P_____________ AL072021 15.6852 -55.9704 TS 37 1010 0 25 25 1014 120 20 23 278
2021222N12339 2021 53 NA NA GRACE 2021-08-14 12:00:00 TS 15.9677 -57.1906 PROVISIONAL 721 656 O_____________ nhc_working_bt AL072021 15.8000 -57.3000 TS 40 1010 0 30 30 1015 120 20 50 24 275
2021222N12339 2021 53 NA NA GRACE 2021-08-14 15:00:00 TS 16.0380 -58.4752 PROVISIONAL 652 623 P_____________ AL072021 15.9920 -58.5447 TS 40 1010 0 30 30 1014 120 25 24 274
2021222N12339 2021 53 NA NA GRACE 2021-08-14 18:00:00 TS 16.1277 -59.6844 PROVISIONAL 620 572 O_____________ nhc_working_bt AL072021 16.2000 -59.7000 TS 40 1010 0 30 30 1014 120 30 50 21 278
2021222N12339 2021 53 NA CS GRACE 2021-08-14 21:00:00 TS 16.3465 -60.6593 PROVISIONAL 562 470 P_____________ AL072021 16.3641 -60.7302 TS 37 1010 0 30 30 1014 120 30 19 284
2021222N12339 2021 53 NA CS GRACE 2021-08-15 00:00:00 TS 16.5667 -61.5667 PROVISIONAL 460 369 O_____________ nhc_working_bt AL072021 16.5000 -61.7000 TS 35 1010 0 30 30 1014 120 30 45 19 279
2021222N12339 2021 53 NA CS GRACE 2021-08-15 03:00:00 TS 16.6569 -62.5971 PROVISIONAL 359 278 P_____________ AL072021 16.5999 -62.7302 TS 35 1010 0 30 30 1014 120 30 19 274
2021222N12339 2021 53 NA CS GRACE 2021-08-15 06:00:00 TS 16.7171 -63.5926 PROVISIONAL 270 200 O_____________ nhc_working_bt AL072021 16.7000 -63.7000 TS 35 1010 0 30 30 1014 120 30 45 12 30 18 276
2021222N12339 2021 53 NA CS GRACE 2021-08-15 09:00:00 TS 16.8439 -64.4530 PROVISIONAL 192 128 P_____________ AL072021 16.8645 -64.5447 TS 35 1010 0 30 30 1014 120 30 12 30 16 279
2021222N12339 2021 53 NA CS GRACE 2021-08-15 12:00:00 TS 16.9546 -65.2311 PROVISIONAL 128 105 O_____________ nhc_working_bt AL072021 17.0000 -65.3000 TS 35 1010 0 30 30 1014 120 30 45 12 30 15 275
2021222N12339 2021 53 NA CS GRACE 2021-08-15 15:00:00 TS 16.9816 -65.9752 PROVISIONAL 102 100 P_____________ AL072021 17.0146 -66.0153 TS 32 1010 -1 1013 120 30 14 271
2021222N12339 2021 53 NA CS GRACE 2021-08-15 18:00:00 TS 16.9898 -66.6874 PROVISIONAL 102 100 O_____________ nhc_working_bt AL072021 17.0000 -66.7000 TD 30 1011 -1 1013 120 30 40 14 272
2021222N12339 2021 53 NA CS GRACE 2021-08-15 21:00:00 TS 17.0356 -67.3963 PROVISIONAL 102 99 P_____________ AL072021 17.0348 -67.4000 TD 30 1011 -1 1013 120 30 14 275
2021222N12339 2021 53 NA CS GRACE 2021-08-16 00:00:00 TS 17.1000 -68.1000 PROVISIONAL 130 111 O_____________ nhc_working_bt AL072021 17.1000 -68.1000 TD 30 1011 -1 1013 120 30 40 14 276
2021222N12339 2021 53 NA CS GRACE 2021-08-16 03:00:00 TS 17.1736 -68.8167 PROVISIONAL 111 111 P_____________ AL072021 17.1923 -68.8075 TD 30 1010 -1 1013 120 30 14 277
2021222N12339 2021 53 NA CS GRACE 2021-08-16 06:00:00 TS 17.2710 -69.5058 PROVISIONAL 123 90 O_____________ nhc_working_bt AL072021 17.3000 -69.5000 TD 30 1010 -1 1013 120 30 40 13 280
2021222N12339 2021 53 NA CS GRACE 2021-08-16 09:00:00 TS 17.4080 -70.1439 PROVISIONAL 90 69 P_____________ AL072021 17.3998 -70.1651 TD 30 1008 -1 1012 120 30 12 283
2021222N12339 2021 53 NA CS GRACE 2021-08-16 12:00:00 TS 17.5516 -70.7410 PROVISIONAL 61 10 O_____________ nhc_working_bt AL072021 17.5000 -70.8000 TD 30 1007 -1 1012 120 30 40 11 283
2021222N12339 2021 53 NA CS GRACE 2021-08-16 15:00:00 TS 17.6662 -71.3027 PROVISIONAL 10 0 P_____________ AL072021 17.6072 -71.4000 TD 30 1007 -1 1012 120 30 11 281
2021222N12339 2021 53 NA CS GRACE 2021-08-16 18:00:00 TS 17.7649 -71.8642 PROVISIONAL 30 30 O_____________ nhc_working_bt AL072021 17.7000 -72.0000 TD 30 1007 -1 1012 120 30 40 11 280
2021222N12339 2021 53 NA CS GRACE 2021-08-16 21:00:00 TS 17.8560 -72.4565 PROVISIONAL 33 22 P_____________ AL072021 17.7498 -72.6352 TD 30 1007 -1 1012 120 30 12 278
2021222N12339 2021 53 NA CS GRACE 2021-08-17 00:00:00 TS 17.9333 -73.1000 PROVISIONAL 33 0 O_____________ nhc_working_bt AL072021 17.8000 -73.3000 TD 30 1007 -1 1012 120 30 40 13 275
2021222N12339 2021 53 NA CS GRACE 2021-08-17 03:00:00 TS 17.9804 -73.8288 PROVISIONAL 0 0 P_____________ AL072021 17.8998 -73.9924 TD 32 1006 -1 1012 120 30 14 274
2021222N12339 2021 53 NA CS GRACE 2021-08-17 06:00:00 TS 18.0223 -74.5769 PROVISIONAL 39 39 O_____________ nhc_working_bt AL072021 18.0000 -74.7000 TS 35 1005 0 30 40 1012 120 30 45 14 274
2021222N12339 2021 53 NA CS GRACE 2021-08-17 09:00:00 TS 18.0755 -75.2816 PROVISIONAL 90 38 P_____________ AL072021 18.0573 -75.4076 TS 40 1005 0 45 50 1011 120 30 13 275
2021222N12339 2021 53 NA CS GRACE 2021-08-17 12:00:00 TS 18.1337 -75.9703 PROVISIONAL 30 0 O_____________ nhc_working_bt AL072021 18.1000 -76.1000 TS 45 1005 0 60 60 1011 120 30 55 13 275
2021222N12339 2021 53 NA CS GRACE 2021-08-17 15:00:00 TS 18.1987 -76.6683 PROVISIONAL 0 0 P_____________ AL072021 18.1498 -76.7650 TS 45 1004 0 65 60 1011 120 30 13 275
2021222N12339 2021 53 NA CS GRACE 2021-08-17 18:00:00 TS 18.2533 -77.3450 PROVISIONAL 0 0 O_____________ nhc_working_bt AL072021 18.2000 -77.4000 TS 45 1004 0 70 60 60 1011 120 30 55 12 273
2021222N12339 2021 53 NA CS GRACE 2021-08-17 21:00:00 TS 18.2592 -77.9636 PROVISIONAL 0 0 P_____________ AL072021 18.2270 -77.9853 TS 47 1002 0 85 75 60 1010 120 40 12 272
2021222N12339 2021 53 NA CS GRACE 2021-08-18 00:00:00 TS 18.3000 -78.6000 PROVISIONAL 23 23 O_____________ nhc_working_bt AL072021 18.3000 -78.6000 TS 50 1000 0 100 90 60 50 1010 120 50 60 12 90 13 279
2021222N12339 2021 53 NA CS GRACE 2021-08-18 03:00:00 TS 18.4576 -79.3383 PROVISIONAL 100 100 P_____________ AL072021 18.4700 -79.3349 TS 50 1000 0 100 90 60 50 1010 120 50 12 90 15 285
2021222N12339 2021 53 NA CS GRACE 2021-08-18 06:00:00 TS 18.6690 -80.1012 PROVISIONAL 187 187 O_____________ nhc_working_bt AL072021 18.7000 -80.1000 TS 50 1000 0 100 90 60 50 1010 120 50 60 12 90 15 287
2021222N12339 2021 53 NA CS GRACE 2021-08-18 09:00:00 TS 18.8810 -80.8053 PROVISIONAL 264 264 P_____________ AL072021 18.9571 -80.8000 TS 55 996 0 100 90 60 50 1010 115 45 12 105 14 288
2021222N12339 2021 53 NA CS GRACE 2021-08-18 12:00:00 TS 19.0982 -81.5171 PROVISIONAL 290 243 O_____________ nhc_working_bt AL072021 19.2000 -81.5000 TS 60 993 0 100 90 60 50 40 1010 110 40 75 12 120 60 60 60 15 287
2021222N12339 2021 53 NA CS GRACE 2021-08-18 15:00:00 TS 19.3129 -82.2727 PROVISIONAL 240 212 P_____________ AL072021 19.3720 -82.2203 TS 65 993 1 110 90 70 50 35 7 7 5 1010 110 27 12 135 90 60 75 15 285
2021222N12339 2021 53 NA CS GRACE 2021-08-18 18:00:00 TS 19.5033 -83.0745 PROVISIONAL 214 210 O_____________ nhc_working_bt AL072021 19.5000 -83.0000 HU 70 993 1 120 90 80 50 30 20 15 15 11 1011 110 15 85 12 150 120 60 90 16 282
2021222N12339 2021 53 NA CS GRACE 2021-08-18 21:00:00 TS 19.6496 -83.9352 PROVISIONAL 231 223 P_____________ AL072021 19.6076 -83.8927 HU 70 990 1 120 90 80 60 30 25 22 17 15 1010 110 17 12 165 135 60 105 16 279
2021222N12339 2021 53 NA CS GRACE 2021-08-19 00:00:00 TS 19.7667 -84.8000 PROVISIONAL 223 168 O_____________ nhc_working_bt AL072021 19.7000 -84.8000 HU 70 988 1 120 90 60 80 70 30 20 30 30 20 20 1010 110 20 85 12 180 150 60 120 16 278
2021222N12339 2021 53 NA CS GRACE 2021-08-19 03:00:00 TS 19.8724 -85.6061 PROVISIONAL 168 103 P_____________ AL072021 19.7993 -85.6076 HU 70 987 1 120 90 60 80 70 30 20 30 30 20 20 1010 110 20 12 180 150 60 120 15 278
2021222N12339 2021 53 NA CS GRACE 2021-08-19 06:00:00 TS 19.9766 -86.4031 PROVISIONAL 103 31 O_____________ nhc_working_bt AL072021 19.9000 -86.4000 HU 70 986 1 120 90 60 80 70 30 20 30 30 20 20 1010 110 20 85 12 180 150 60 120 16 278
2021222N12339 2021 53 NA CS GRACE 2021-08-19 09:00:00 TS 20.0812 -87.2480 PROVISIONAL 31 0 P_____________ AL072021 19.9850 -87.2653 HU 65 990 1 120 80 55 70 55 30 30 15 10 10 1010 110 20 12 187 135 67 135 16 278
2021222N12339 2021 53 NA NA GRACE 2021-08-19 12:00:00 TS 20.2066 -88.0700 PROVISIONAL 0 0 O_____________ nhc_working_bt AL072021 20.1000 -88.1000 TS 60 994 0 120 70 50 60 40 30 30 1010 110 20 75 12 195 120 75 150 15 281
2021222N12339 2021 53 NA NA GRACE 2021-08-19 15:00:00 TS 20.3757 -88.8050 PROVISIONAL 0 0 P_____________ AL072021 20.2917 -88.8075 TS 55 995 0 130 60 45 95 35 30 1010 110 20 12 187 165 14 284
2021222N12339 2021 53 NA NA GRACE 2021-08-19 18:00:00 TS 20.5498 -89.5186 PROVISIONAL 0 0 O_____________ nhc_working_bt AL072021 20.5000 -89.5000 TS 50 997 0 140 50 40 130 30 30 1010 110 20 60 12 180 180 14 283
2021222N12339 2021 53 NA NA GRACE 2021-08-19 21:00:00 TS 20.7034 -90.2686 PROVISIONAL 0 0 P_____________ AL072021 20.6873 -90.2848 TS 52 995 0 140 50 40 130 30 25 1010 110 20 12 180 180 14 280
2021222N12339 2021 53 NA GM GRACE 2021-08-20 00:00:00 TS 20.8000 -91.0333 PROVISIONAL 61 61 O_____________ nhc_working_bt AL072021 20.8000 -91.1000 TS 55 994 0 140 50 40 130 30 20 1010 110 20 65 12 180 180 15 274
2021222N12339 2021 53 NA GM GRACE 2021-08-20 03:00:00 TS 20.8072 -91.8272 PROVISIONAL 139 139 P_____________ AL072021 20.7802 -91.9454 TS 57 994 0 135 65 40 120 30 25 1010 130 20 12 165 180 14 269
2021222N12339 2021 53 NA GM GRACE 2021-08-20 06:00:00 TS 20.7677 -92.5544 PROVISIONAL 221 221 O_____________ nhc_working_bt AL072021 20.7000 -92.7000 TS 60 994 0 130 80 40 110 30 30 30 1010 150 20 75 12 150 60 180 12 267
2021222N12339 2021 53 NA GM GRACE 2021-08-20 09:00:00 TS 20.7364 -93.1243 PROVISIONAL 238 238 P_____________ AL072021 20.6419 -93.2525 TS 67 988 1 150 85 60 115 40 30 35 12 10 1010 150 20 12 165 67 165 10 267
2021222N12339 2021 53 NA GM GRACE 2021-08-20 12:00:00 TS 20.7090 -93.6085 PROVISIONAL 253 253 O_____________ nhc_working_bt AL072021 20.6000 -93.7000 HU 75 982 1 170 90 80 120 50 30 30 40 25 20 1010 150 20 90 12 180 45 75 150 9 267
2021222N12339 2021 53 NA GM GRACE 2021-08-20 15:00:00 TS 20.6919 -94.0720 PROVISIONAL 251 217 P_____________ AL072021 20.5847 -94.1425 HU 77 980 1 165 90 80 110 55 30 30 45 22 20 1011 165 20 12 195 52 67 165 9 269
2021222N12339 2021 53 NA GM GRACE 2021-08-20 18:00:00 TS 20.6876 -94.5500 PROVISIONAL 217 162 O_____________ nhc_working_bt AL072021 20.6000 -94.6000 HU 80 979 1 160 90 80 100 60 30 30 50 20 20 1012 180 20 100 12 210 60 60 180 10 271
2021222N12339 2021 53 NA GM GRACE 2021-08-20 21:00:00 TS 20.7030 -95.0900 PROVISIONAL 162 114 P_____________ AL072021 20.6571 -95.1048 HU 92 973 2 145 90 75 100 55 30 30 50 22 22 1012 180 20 12 225 90 60 195 11 271
2021222N12339 2021 53 NA GM GRACE 2021-08-21 00:00:00 TS 20.7000 -95.7000 PROVISIONAL 114 61 O_____________ nhc_working_bt AL072021 20.7000 -95.7000 HU 105 967 3 130 90 70 100 50 30 30 50 25 20 20 25 1012 180 20 30 105 12 240 120 60 210 12 268
2021222N12339 2021 53 NA GM GRACE 2021-08-21 03:00:00 TS 20.6664 -96.4030 PROVISIONAL 61 0 P_____________ AL072021 20.7104 -96.4497 HU 107 964 3 130 90 70 100 50 30 30 50 25 20 20 25 1012 180 20 12 225 112 13 263
2021222N12339 2021 53 NA NA GRACE 2021-08-21 06:00:00 TS 20.5445 -97.1074 PROVISIONAL 0 0 O_____________ nhc_working_bt AL072021 20.6000 -97.2000 HU 110 962 3 130 90 70 100 50 30 30 50 25 20 20 25 1012 180 20 135 12 210 105 13 252
2021222N12339 2021 53 NA NA GRACE 2021-08-21 09:00:00 TS 20.2609 -97.7006 PROVISIONAL 0 0 P_____________ AL072021 20.2569 -97.7730 HU 95 971 2 130 90 70 100 50 30 30 50 25 20 20 25 1010 180 20 12 210 105 12 242
2021222N12339 2021 53 NA NA GRACE 2021-08-21 12:00:00 TS 19.9629 -98.2664 PROVISIONAL 0 0 O_____________ nhc_working_bt AL072021 19.9000 -98.3000 HU 80 980 1 130 90 70 100 50 30 30 50 25 20 20 25 1008 180 20 100 12 210 105 12 247
2021222N12339 2021 53 NA NA GRACE 2021-08-21 15:00:00 TS 19.7897 -98.8693 PROVISIONAL 0 0 P_____________ AL072021 19.7356 -98.8796 HU 55 989 0 130 90 70 100 25 15 15 25 1008 165 20 12 257
2021222N12339 2021 53 NA NA GRACE 2021-08-21 18:00:00 TS 19.7000 -99.5000 PROVISIONAL 0 O_____________ nhc_working_bt AL072021 19.7000 -99.5000 TD 30 998 -1 130 90 70 100 1008 150 20 40 12 261

About IBTrACS Database

This database is a web-friendly format of International Best Track Archive for Climate Stewardship (IBTrACS), a global best track data archive curated by NOAA dating back to 1842.

Updated: 2021-12-03